sensor_id;sensor_type;location;lat;lon;timestamp;temperature;humidity
23267;DHT22;11802;53.160;8.214;2023-05-07T00:01:13;10.90;99.90
23267;DHT22;11802;53.160;8.214;2023-05-07T00:03:38;10.90;99.90
23267;DHT22;11802;53.160;8.214;2023-05-07T00:06:04;10.90;99.90
23267;DHT22;11802;53.160;8.214;2023-05-07T00:08:30;10.90;99.90
23267;DHT22;11802;53.160;8.214;2023-05-07T00:10:55;10.90;99.90
23267;DHT22;11802;53.160;8.214;2023-05-07T00:13:21;10.90;99.90
23267;DHT22;11802;53.160;8.214;2023-05-07T00:15:46;11.00;99.90
23267;DHT22;11802;53.160;8.214;2023-05-07T00:18:12;10.90;99.90
23267;DHT22;11802;53.160;8.214;2023-05-07T00:20:38;10.90;99.90
23267;DHT22;11802;53.160;8.214;2023-05-07T00:23:03;11.00;99.90
23267;DHT22;11802;53.160;8.214;2023-05-07T00:25:29;11.00;99.90
23267;DHT22;11802;53.160;8.214;2023-05-07T00:27:54;10.90;99.90
23267;DHT22;11802;53.160;8.214;2023-05-07T00:30:20;10.80;99.90
23267;DHT22;11802;53.160;8.214;2023-05-07T00:32:45;10.80;99.90
23267;DHT22;11802;53.160;8.214;2023-05-07T00:35:11;10.80;99.90
23267;DHT22;11802;53.160;8.214;2023-05-07T00:37:37;10.80;99.90
23267;DHT22;11802;53.160;8.214;2023-05-07T00:40:03;10.70;99.90
23267;DHT22;11802;53.160;8.214;2023-05-07T00:42:32;10.60;99.90
23267;DHT22;11802;53.160;8.214;2023-05-07T00:44:58;10.50;99.90
23267;DHT22;11802;53.160;8.214;2023-05-07T00:47:24;10.50;99.90
23267;DHT22;11802;53.160;8.214;2023-05-07T00:49:50;10.50;99.90
23267;DHT22;11802;53.160;8.214;2023-05-07T00:52:17;10.50;99.90
23267;DHT22;11802;53.160;8.214;2023-05-07T00:54:45;10.40;99.90
23267;DHT22;11802;53.160;8.214;2023-05-07T00:57:11;10.30;99.90
23267;DHT22;11802;53.160;8.214;2023-05-07T00:59:37;10.30;99.90
23267;DHT22;11802;53.160;8.214;2023-05-07T01:02:02;10.30;99.90
23267;DHT22;11802;53.160;8.214;2023-05-07T01:04:29;10.30;99.90
23267;DHT22;11802;53.160;8.214;2023-05-07T01:06:55;10.30;99.90
23267;DHT22;11802;53.160;8.214;2023-05-07T01:09:22;10.30;99.90
23267;DHT22;11802;53.160;8.214;2023-05-07T01:11:49;10.30;99.90
23267;DHT22;11802;53.160;8.214;2023-05-07T01:14:16;10.30;99.90
23267;DHT22;11802;53.160;8.214;2023-05-07T01:16:41;10.30;99.90
23267;DHT22;11802;53.160;8.214;2023-05-07T01:19:08;10.30;99.90
23267;DHT22;11802;53.160;8.214;2023-05-07T01:21:37;10.30;99.90
23267;DHT22;11802;53.160;8.214;2023-05-07T01:24:03;10.20;99.90
23267;DHT22;11802;53.160;8.214;2023-05-07T01:26:30;10.20;99.90
23267;DHT22;11802;53.160;8.214;2023-05-07T01:28:55;10.10;99.90
23267;DHT22;11802;53.160;8.214;2023-05-07T01:31:23;10.20;99.90
23267;DHT22;11802;53.160;8.214;2023-05-07T01:33:49;10.20;99.90
23267;DHT22;11802;53.160;8.214;2023-05-07T01:36:17;10.20;99.90
23267;DHT22;11802;53.160;8.214;2023-05-07T01:38:44;10.10;99.90
23267;DHT22;11802;53.160;8.214;2023-05-07T01:41:11;10.10;99.90
23267;DHT22;11802;53.160;8.214;2023-05-07T01:43:38;10.00;99.90
23267;DHT22;11802;53.160;8.214;2023-05-07T01:46:05;10.00;99.90
23267;DHT22;11802;53.160;8.214;2023-05-07T01:48:32;10.00;99.90
23267;DHT22;11802;53.160;8.214;2023-05-07T01:50:58;10.00;99.90
23267;DHT22;11802;53.160;8.214;2023-05-07T01:53:27;10.00;99.90
23267;DHT22;11802;53.160;8.214;2023-05-07T01:55:52;10.00;99.90
23267;DHT22;11802;53.160;8.214;2023-05-07T01:58:18;10.00;99.90
23267;DHT22;11802;53.160;8.214;2023-05-07T02:00:44;9.90;99.90
23267;DHT22;11802;53.160;8.214;2023-05-07T02:03:09;9.90;99.90
23267;DHT22;11802;53.160;8.214;2023-05-07T02:05:35;9.90;99.90
23267;DHT22;11802;53.160;8.214;2023-05-07T02:08:00;9.90;99.90
23267;DHT22;11802;53.160;8.214;2023-05-07T02:10:26;10.00;99.90
23267;DHT22;11802;53.160;8.214;2023-05-07T02:12:51;9.90;99.90
23267;DHT22;11802;53.160;8.214;2023-05-07T02:15:17;9.90;99.90
23267;DHT22;11802;53.160;8.214;2023-05-07T02:18:05;9.90;99.90
23267;DHT22;11802;53.160;8.214;2023-05-07T02:20:37;9.90;99.90
23267;DHT22;11802;53.160;8.214;2023-05-07T02:23:02;9.90;99.90
23267;DHT22;11802;53.160;8.214;2023-05-07T02:25:28;9.90;99.90
23267;DHT22;11802;53.160;8.214;2023-05-07T02:27:54;9.80;99.90
23267;DHT22;11802;53.160;8.214;2023-05-07T02:30:20;9.90;99.90
23267;DHT22;11802;53.160;8.214;2023-05-07T02:32:47;9.90;99.90
23267;DHT22;11802;53.160;8.214;2023-05-07T02:35:13;9.70;99.90
23267;DHT22;11802;53.160;8.214;2023-05-07T02:37:38;9.80;99.90
23267;DHT22;11802;53.160;8.214;2023-05-07T02:40:04;9.70;99.90
23267;DHT22;11802;53.160;8.214;2023-05-07T02:42:30;9.70;99.90
23267;DHT22;11802;53.160;8.214;2023-05-07T02:44:56;9.70;99.90
23267;DHT22;11802;53.160;8.214;2023-05-07T02:47:21;9.70;99.90
23267;DHT22;11802;53.160;8.214;2023-05-07T02:49:47;9.70;99.90
23267;DHT22;11802;53.160;8.214;2023-05-07T02:52:13;9.60;99.90
23267;DHT22;11802;53.160;8.214;2023-05-07T02:54:38;9.60;99.90
23267;DHT22;11802;53.160;8.214;2023-05-07T02:57:04;9.60;99.90
23267;DHT22;11802;53.160;8.214;2023-05-07T02:59:29;9.50;99.90
23267;DHT22;11802;53.160;8.214;2023-05-07T03:01:55;9.60;99.90
23267;DHT22;11802;53.160;8.214;2023-05-07T03:04:20;9.60;99.90
23267;DHT22;11802;53.160;8.214;2023-05-07T03:06:46;9.60;99.90
23267;DHT22;11802;53.160;8.214;2023-05-07T03:09:11;9.50;99.90
23267;DHT22;11802;53.160;8.214;2023-05-07T03:11:37;9.60;99.90
23267;DHT22;11802;53.160;8.214;2023-05-07T03:14:02;9.60;99.90
23267;DHT22;11802;53.160;8.214;2023-05-07T03:16:28;9.60;99.90
23267;DHT22;11802;53.160;8.214;2023-05-07T03:18:53;9.50;99.90
23267;DHT22;11802;53.160;8.214;2023-05-07T03:21:19;9.60;99.90
23267;DHT22;11802;53.160;8.214;2023-05-07T03:23:45;9.60;99.90
23267;DHT22;11802;53.160;8.214;2023-05-07T03:26:10;9.60;99.90
23267;DHT22;11802;53.160;8.214;2023-05-07T03:28:36;9.60;99.90
23267;DHT22;11802;53.160;8.214;2023-05-07T03:31:02;9.60;99.90
23267;DHT22;11802;53.160;8.214;2023-05-07T03:33:27;9.50;99.90
23267;DHT22;11802;53.160;8.214;2023-05-07T03:35:53;9.50;99.90
23267;DHT22;11802;53.160;8.214;2023-05-07T03:38:19;9.60;99.90
23267;DHT22;11802;53.160;8.214;2023-05-07T03:40:44;9.60;99.90
23267;DHT22;11802;53.160;8.214;2023-05-07T03:43:10;9.60;99.90
23267;DHT22;11802;53.160;8.214;2023-05-07T03:45:35;9.60;99.90
23267;DHT22;11802;53.160;8.214;2023-05-07T03:48:01;9.50;99.90
23267;DHT22;11802;53.160;8.214;2023-05-07T03:50:26;9.50;99.90
23267;DHT22;11802;53.160;8.214;2023-05-07T03:52:52;9.50;99.90
23267;DHT22;11802;53.160;8.214;2023-05-07T03:55:18;9.50;99.90
23267;DHT22;11802;53.160;8.214;2023-05-07T03:57:43;9.50;99.90
23267;DHT22;11802;53.160;8.214;2023-05-07T04:00:09;9.40;99.90
23267;DHT22;11802;53.160;8.214;2023-05-07T04:02:35;9.40;99.90
23267;DHT22;11802;53.160;8.214;2023-05-07T04:05:00;9.40;99.90
23267;DHT22;11802;53.160;8.214;2023-05-07T04:07:26;9.30;99.90
23267;DHT22;11802;53.160;8.214;2023-05-07T04:09:52;9.30;99.90
23267;DHT22;11802;53.160;8.214;2023-05-07T04:12:17;9.30;99.90
23267;DHT22;11802;53.160;8.214;2023-05-07T04:14:42;9.40;99.90
23267;DHT22;11802;53.160;8.214;2023-05-07T04:17:08;9.40;99.90
23267;DHT22;11802;53.160;8.214;2023-05-07T04:19:35;9.40;99.90
23267;DHT22;11802;53.160;8.214;2023-05-07T04:22:00;9.40;99.90
23267;DHT22;11802;53.160;8.214;2023-05-07T04:24:26;9.40;99.90
23267;DHT22;11802;53.160;8.214;2023-05-07T04:26:52;9.30;99.90
23267;DHT22;11802;53.160;8.214;2023-05-07T04:29:18;9.30;99.90
23267;DHT22;11802;53.160;8.214;2023-05-07T04:31:44;9.40;99.90
23267;DHT22;11802;53.160;8.214;2023-05-07T04:34:10;9.40;99.90
23267;DHT22;11802;53.160;8.214;2023-05-07T04:36:37;9.40;99.90
23267;DHT22;11802;53.160;8.214;2023-05-07T04:39:03;9.40;99.90
23267;DHT22;11802;53.160;8.214;2023-05-07T04:41:29;9.40;99.90
23267;DHT22;11802;53.160;8.214;2023-05-07T04:43:54;9.40;99.90
23267;DHT22;11802;53.160;8.214;2023-05-07T04:46:20;9.40;99.90
23267;DHT22;11802;53.160;8.214;2023-05-07T04:48:46;9.50;99.90
23267;DHT22;11802;53.160;8.214;2023-05-07T04:51:11;9.40;99.90
23267;DHT22;11802;53.160;8.214;2023-05-07T04:53:37;9.50;99.90
23267;DHT22;11802;53.160;8.214;2023-05-07T04:56:03;9.50;99.90
23267;DHT22;11802;53.160;8.214;2023-05-07T04:58:28;9.60;99.90
23267;DHT22;11802;53.160;8.214;2023-05-07T05:00:57;9.60;99.90
23267;DHT22;11802;53.160;8.214;2023-05-07T05:03:22;9.60;99.90
23267;DHT22;11802;53.160;8.214;2023-05-07T05:05:52;9.70;99.90
23267;DHT22;11802;53.160;8.214;2023-05-07T05:08:18;9.70;99.90
23267;DHT22;11802;53.160;8.214;2023-05-07T05:10:43;9.70;99.90
23267;DHT22;11802;53.160;8.214;2023-05-07T05:13:09;9.70;99.90
23267;DHT22;11802;53.160;8.214;2023-05-07T05:15:35;9.70;99.90
23267;DHT22;11802;53.160;8.214;2023-05-07T05:18:00;9.60;99.90
23267;DHT22;11802;53.160;8.214;2023-05-07T05:20:26;9.70;99.90
23267;DHT22;11802;53.160;8.214;2023-05-07T05:22:52;9.70;99.90
23267;DHT22;11802;53.160;8.214;2023-05-07T05:25:17;9.70;99.90
23267;DHT22;11802;53.160;8.214;2023-05-07T05:27:43;9.70;99.90
23267;DHT22;11802;53.160;8.214;2023-05-07T05:30:08;9.70;99.90
23267;DHT22;11802;53.160;8.214;2023-05-07T05:32:34;9.70;99.90
23267;DHT22;11802;53.160;8.214;2023-05-07T05:35:00;9.70;99.90
23267;DHT22;11802;53.160;8.214;2023-05-07T05:37:25;9.70;99.90
23267;DHT22;11802;53.160;8.214;2023-05-07T05:39:52;9.70;99.90
23267;DHT22;11802;53.160;8.214;2023-05-07T05:42:18;9.70;99.90
23267;DHT22;11802;53.160;8.214;2023-05-07T05:44:43;9.70;99.90
23267;DHT22;11802;53.160;8.214;2023-05-07T05:47:09;9.70;99.90
23267;DHT22;11802;53.160;8.214;2023-05-07T05:49:34;9.70;99.90
23267;DHT22;11802;53.160;8.214;2023-05-07T05:52:00;9.70;99.90
23267;DHT22;11802;53.160;8.214;2023-05-07T05:54:25;9.70;99.90
23267;DHT22;11802;53.160;8.214;2023-05-07T05:56:51;9.70;99.90
23267;DHT22;11802;53.160;8.214;2023-05-07T05:59:16;9.60;99.90
23267;DHT22;11802;53.160;8.214;2023-05-07T06:01:42;9.60;99.90
23267;DHT22;11802;53.160;8.214;2023-05-07T06:04:08;9.70;99.90
23267;DHT22;11802;53.160;8.214;2023-05-07T06:06:33;9.70;99.90
23267;DHT22;11802;53.160;8.214;2023-05-07T06:08:59;9.70;99.90
23267;DHT22;11802;53.160;8.214;2023-05-07T06:11:24;9.80;99.90
23267;DHT22;11802;53.160;8.214;2023-05-07T06:13:50;9.80;99.90
23267;DHT22;11802;53.160;8.214;2023-05-07T06:16:16;9.80;99.90
23267;DHT22;11802;53.160;8.214;2023-05-07T06:18:41;9.80;99.90
23267;DHT22;11802;53.160;8.214;2023-05-07T06:21:07;9.70;99.90
23267;DHT22;11802;53.160;8.214;2023-05-07T06:23:32;9.70;99.90
23267;DHT22;11802;53.160;8.214;2023-05-07T06:25:58;9.70;99.90
23267;DHT22;11802;53.160;8.214;2023-05-07T06:28:23;9.60;99.90
23267;DHT22;11802;53.160;8.214;2023-05-07T06:30:49;9.70;99.90
23267;DHT22;11802;53.160;8.214;2023-05-07T06:33:15;9.60;99.90
23267;DHT22;11802;53.160;8.214;2023-05-07T06:35:41;9.60;99.90
23267;DHT22;11802;53.160;8.214;2023-05-07T06:38:06;9.60;99.90
23267;DHT22;11802;53.160;8.214;2023-05-07T06:40:32;9.60;99.90
23267;DHT22;11802;53.160;8.214;2023-05-07T06:42:57;9.70;99.90
23267;DHT22;11802;53.160;8.214;2023-05-07T06:45:23;9.60;99.90
23267;DHT22;11802;53.160;8.214;2023-05-07T06:47:50;9.60;99.90
23267;DHT22;11802;53.160;8.214;2023-05-07T06:50:16;9.60;99.90
23267;DHT22;11802;53.160;8.214;2023-05-07T06:52:42;9.70;99.90
23267;DHT22;11802;53.160;8.214;2023-05-07T06:55:08;9.80;99.90
23267;DHT22;11802;53.160;8.214;2023-05-07T06:57:34;9.80;99.90
23267;DHT22;11802;53.160;8.214;2023-05-07T07:00:00;9.80;99.90
23267;DHT22;11802;53.160;8.214;2023-05-07T07:02:25;9.80;99.90
23267;DHT22;11802;53.160;8.214;2023-05-07T07:04:51;9.80;99.90
23267;DHT22;11802;53.160;8.214;2023-05-07T07:07:16;9.90;99.90
23267;DHT22;11802;53.160;8.214;2023-05-07T07:09:42;9.90;99.90
23267;DHT22;11802;53.160;8.214;2023-05-07T07:12:07;10.00;99.90
23267;DHT22;11802;53.160;8.214;2023-05-07T07:14:33;10.00;99.90
23267;DHT22;11802;53.160;8.214;2023-05-07T07:16:58;10.10;99.90
23267;DHT22;11802;53.160;8.214;2023-05-07T07:19:25;10.20;99.90
23267;DHT22;11802;53.160;8.214;2023-05-07T07:21:51;10.20;99.90
23267;DHT22;11802;53.160;8.214;2023-05-07T07:24:16;10.20;99.90
23267;DHT22;11802;53.160;8.214;2023-05-07T07:26:46;10.30;99.90
23267;DHT22;11802;53.160;8.214;2023-05-07T07:29:11;10.40;99.90
23267;DHT22;11802;53.160;8.214;2023-05-07T07:31:37;10.30;99.90
23267;DHT22;11802;53.160;8.214;2023-05-07T07:34:02;10.30;99.90
23267;DHT22;11802;53.160;8.214;2023-05-07T07:36:28;10.30;99.90
23267;DHT22;11802;53.160;8.214;2023-05-07T07:38:54;10.40;99.90
23267;DHT22;11802;53.160;8.214;2023-05-07T07:41:19;10.40;99.90
23267;DHT22;11802;53.160;8.214;2023-05-07T07:43:45;10.50;99.90
23267;DHT22;11802;53.160;8.214;2023-05-07T07:46:12;10.50;99.90
23267;DHT22;11802;53.160;8.214;2023-05-07T07:48:37;10.50;99.90
23267;DHT22;11802;53.160;8.214;2023-05-07T07:51:03;10.50;99.90
23267;DHT22;11802;53.160;8.214;2023-05-07T07:53:28;10.60;99.90
23267;DHT22;11802;53.160;8.214;2023-05-07T07:55:54;10.60;99.90
23267;DHT22;11802;53.160;8.214;2023-05-07T07:58:20;10.70;99.90
23267;DHT22;11802;53.160;8.214;2023-05-07T08:00:45;10.80;99.90
23267;DHT22;11802;53.160;8.214;2023-05-07T08:03:12;10.80;99.90
23267;DHT22;11802;53.160;8.214;2023-05-07T08:05:38;10.80;99.90
23267;DHT22;11802;53.160;8.214;2023-05-07T08:08:04;10.80;99.90
23267;DHT22;11802;53.160;8.214;2023-05-07T08:10:29;10.80;99.90
23267;DHT22;11802;53.160;8.214;2023-05-07T08:12:59;10.80;99.90
23267;DHT22;11802;53.160;8.214;2023-05-07T08:15:24;10.90;99.90
23267;DHT22;11802;53.160;8.214;2023-05-07T08:17:50;10.90;99.90
23267;DHT22;11802;53.160;8.214;2023-05-07T08:20:15;10.80;99.90
23267;DHT22;11802;53.160;8.214;2023-05-07T08:22:41;10.80;99.90
23267;DHT22;11802;53.160;8.214;2023-05-07T08:25:06;10.80;99.90
23267;DHT22;11802;53.160;8.214;2023-05-07T08:27:32;10.90;99.90
23267;DHT22;11802;53.160;8.214;2023-05-07T08:29:57;10.90;99.90
23267;DHT22;11802;53.160;8.214;2023-05-07T08:32:23;11.00;99.90
23267;DHT22;11802;53.160;8.214;2023-05-07T08:34:49;11.00;99.90
23267;DHT22;11802;53.160;8.214;2023-05-07T08:37:14;11.00;99.90
23267;DHT22;11802;53.160;8.214;2023-05-07T08:39:40;11.10;99.90
23267;DHT22;11802;53.160;8.214;2023-05-07T08:42:06;11.20;99.90
23267;DHT22;11802;53.160;8.214;2023-05-07T08:44:34;11.30;99.90
23267;DHT22;11802;53.160;8.214;2023-05-07T08:47:03;11.50;99.90
23267;DHT22;11802;53.160;8.214;2023-05-07T08:49:31;11.60;99.90
23267;DHT22;11802;53.160;8.214;2023-05-07T08:51:59;11.40;99.90
23267;DHT22;11802;53.160;8.214;2023-05-07T08:54:24;11.50;99.90
23267;DHT22;11802;53.160;8.214;2023-05-07T08:56:51;11.60;99.90
23267;DHT22;11802;53.160;8.214;2023-05-07T08:59:17;11.60;99.90
23267;DHT22;11802;53.160;8.214;2023-05-07T09:01:42;11.70;99.90
23267;DHT22;11802;53.160;8.214;2023-05-07T09:04:08;11.80;99.90
23267;DHT22;11802;53.160;8.214;2023-05-07T09:06:34;11.80;94.30
23267;DHT22;11802;53.160;8.214;2023-05-07T09:09:00;11.80;70.60
23267;DHT22;11802;53.160;8.214;2023-05-07T09:11:26;11.90;14.00
23267;DHT22;11802;53.160;8.214;2023-05-07T09:13:56;12.20;8.20
23267;DHT22;11802;53.160;8.214;2023-05-07T09:16:25;12.10;13.60
23267;DHT22;11802;53.160;8.214;2023-05-07T09:18:52;12.30;1.00
23267;DHT22;11802;53.160;8.214;2023-05-07T09:21:19;12.50;1.00
23267;DHT22;11802;53.160;8.214;2023-05-07T09:23:45;12.80;1.00
23267;DHT22;11802;53.160;8.214;2023-05-07T09:26:11;12.90;1.00
23267;DHT22;11802;53.160;8.214;2023-05-07T09:28:40;12.90;1.00
23267;DHT22;11802;53.160;8.214;2023-05-07T09:31:07;13.00;1.00
23267;DHT22;11802;53.160;8.214;2023-05-07T09:33:32;12.90;1.00
23267;DHT22;11802;53.160;8.214;2023-05-07T09:35:58;13.00;1.00
23267;DHT22;11802;53.160;8.214;2023-05-07T09:38:24;13.30;1.00
23267;DHT22;11802;53.160;8.214;2023-05-07T09:41:12;13.70;99.90
23267;DHT22;11802;53.160;8.214;2023-05-07T09:43:39;13.80;99.90
23267;DHT22;11802;53.160;8.214;2023-05-07T09:46:15;13.90;26.00
23267;DHT22;11802;53.160;8.214;2023-05-07T09:48:43;14.00;1.00
23267;DHT22;11802;53.160;8.214;2023-05-07T09:51:28;14.20;1.00
23267;DHT22;11802;53.160;8.214;2023-05-07T09:53:54;13.90;1.00
23267;DHT22;11802;53.160;8.214;2023-05-07T09:56:21;14.00;1.00
23267;DHT22;11802;53.160;8.214;2023-05-07T09:58:48;14.00;1.00
23267;DHT22;11802;53.160;8.214;2023-05-07T10:01:17;14.00;99.90
23267;DHT22;11802;53.160;8.214;2023-05-07T10:03:44;14.10;99.90
23267;DHT22;11802;53.160;8.214;2023-05-07T10:06:12;14.30;99.90
23267;DHT22;11802;53.160;8.214;2023-05-07T10:08:38;14.40;1.00
23267;DHT22;11802;53.160;8.214;2023-05-07T10:11:05;14.60;1.00
23267;DHT22;11802;53.160;8.214;2023-05-07T10:13:32;15.00;1.00
23267;DHT22;11802;53.160;8.214;2023-05-07T10:15:59;15.10;1.00
23267;DHT22;11802;53.160;8.214;2023-05-07T10:18:25;15.10;1.00
23267;DHT22;11802;53.160;8.214;2023-05-07T10:20:57;15.20;99.90
23267;DHT22;11802;53.160;8.214;2023-05-07T10:23:27;14.80;1.00
23267;DHT22;11802;53.160;8.214;2023-05-07T10:25:54;15.00;1.00
23267;DHT22;11802;53.160;8.214;2023-05-07T10:28:22;14.90;11.30
23267;DHT22;11802;53.160;8.214;2023-05-07T10:31:30;14.90;1.00
23267;DHT22;11802;53.160;8.214;2023-05-07T10:34:03;15.10;1.00
23267;DHT22;11802;53.160;8.214;2023-05-07T10:36:33;15.20;1.00
23267;DHT22;11802;53.160;8.214;2023-05-07T10:39:00;15.20;1.00
23267;DHT22;11802;53.160;8.214;2023-05-07T10:41:25;15.30;99.90
23267;DHT22;11802;53.160;8.214;2023-05-07T10:43:51;15.60;1.00
23267;DHT22;11802;53.160;8.214;2023-05-07T10:46:17;15.30;1.00
23267;DHT22;11802;53.160;8.214;2023-05-07T10:49:06;15.40;99.90
23267;DHT22;11802;53.160;8.214;2023-05-07T10:51:32;15.70;1.00
23267;DHT22;11802;53.160;8.214;2023-05-07T10:56:37;15.80;1.00
23267;DHT22;11802;53.160;8.214;2023-05-07T11:02:00;16.10;99.90
23267;DHT22;11802;53.160;8.214;2023-05-07T11:04:28;16.10;99.90
23267;DHT22;11802;53.160;8.214;2023-05-07T11:15:10;17.70;1.00
23267;DHT22;11802;53.160;8.214;2023-05-07T11:17:56;17.70;99.90
23267;DHT22;11802;53.160;8.214;2023-05-07T11:20:45;17.50;1.00
23267;DHT22;11802;53.160;8.214;2023-05-07T11:26:08;16.80;1.00
23267;DHT22;11802;53.160;8.214;2023-05-07T11:28:43;16.40;1.00
23267;DHT22;11802;53.160;8.214;2023-05-07T11:31:10;16.50;77.30
23267;DHT22;11802;53.160;8.214;2023-05-07T11:33:37;16.60;99.90
23267;DHT22;11802;53.160;8.214;2023-05-07T11:36:04;16.70;99.90
23267;DHT22;11802;53.160;8.214;2023-05-07T11:38:30;16.60;99.90
23267;DHT22;11802;53.160;8.214;2023-05-07T11:40:57;16.50;99.90
23267;DHT22;11802;53.160;8.214;2023-05-07T11:43:26;16.00;1.00
23267;DHT22;11802;53.160;8.214;2023-05-07T11:45:51;16.20;99.90
23267;DHT22;11802;53.160;8.214;2023-05-07T11:48:17;16.30;99.90
23267;DHT22;11802;53.160;8.214;2023-05-07T11:53:27;15.80;99.90
23267;DHT22;11802;53.160;8.214;2023-05-07T11:55:55;15.90;1.00
23267;DHT22;11802;53.160;8.214;2023-05-07T11:58:22;16.10;99.90
23267;DHT22;11802;53.160;8.214;2023-05-07T12:00:52;16.20;1.00
23267;DHT22;11802;53.160;8.214;2023-05-07T12:03:18;16.50;99.90
23267;DHT22;11802;53.160;8.214;2023-05-07T12:05:45;16.60;1.00
23267;DHT22;11802;53.160;8.214;2023-05-07T12:08:21;16.70;1.00
23267;DHT22;11802;53.160;8.214;2023-05-07T12:10:49;16.60;1.00
23267;DHT22;11802;53.160;8.214;2023-05-07T12:13:18;16.60;1.00
23267;DHT22;11802;53.160;8.214;2023-05-07T12:15:44;16.90;99.90
23267;DHT22;11802;53.160;8.214;2023-05-07T12:18:11;16.80;99.90
23267;DHT22;11802;53.160;8.214;2023-05-07T12:20:37;17.00;99.90
23267;DHT22;11802;53.160;8.214;2023-05-07T12:23:03;17.30;1.00
23267;DHT22;11802;53.160;8.214;2023-05-07T12:25:35;17.10;99.90
23267;DHT22;11802;53.160;8.214;2023-05-07T12:28:02;17.20;1.00
23267;DHT22;11802;53.160;8.214;2023-05-07T12:30:27;17.10;1.00
23267;DHT22;11802;53.160;8.214;2023-05-07T12:32:54;16.70;99.90
23267;DHT22;11802;53.160;8.214;2023-05-07T12:35:30;16.90;99.90
23267;DHT22;11802;53.160;8.214;2023-05-07T12:37:57;16.70;99.90
23267;DHT22;11802;53.160;8.214;2023-05-07T12:40:35;16.60;99.90
23267;DHT22;11802;53.160;8.214;2023-05-07T12:43:01;16.50;1.00
23267;DHT22;11802;53.160;8.214;2023-05-07T12:45:27;16.70;99.90
23267;DHT22;11802;53.160;8.214;2023-05-07T12:47:52;16.70;99.90
23267;DHT22;11802;53.160;8.214;2023-05-07T12:50:18;16.60;1.00
23267;DHT22;11802;53.160;8.214;2023-05-07T12:52:45;16.70;99.90
23267;DHT22;11802;53.160;8.214;2023-05-07T12:55:14;16.70;1.00
23267;DHT22;11802;53.160;8.214;2023-05-07T12:57:41;16.80;99.90
23267;DHT22;11802;53.160;8.214;2023-05-07T13:00:07;17.10;99.90
23267;DHT22;11802;53.160;8.214;2023-05-07T13:02:34;17.20;1.00
23267;DHT22;11802;53.160;8.214;2023-05-07T13:05:02;17.20;1.00
23267;DHT22;11802;53.160;8.214;2023-05-07T13:07:28;17.00;1.00
23267;DHT22;11802;53.160;8.214;2023-05-07T13:09:53;17.00;99.90
23267;DHT22;11802;53.160;8.214;2023-05-07T13:12:19;16.90;1.00
23267;DHT22;11802;53.160;8.214;2023-05-07T13:14:44;17.30;1.00
23267;DHT22;11802;53.160;8.214;2023-05-07T13:17:10;17.70;99.90
23267;DHT22;11802;53.160;8.214;2023-05-07T13:19:35;17.50;99.90
23267;DHT22;11802;53.160;8.214;2023-05-07T13:22:03;17.30;1.00
23267;DHT22;11802;53.160;8.214;2023-05-07T13:24:31;17.40;1.00
23267;DHT22;11802;53.160;8.214;2023-05-07T13:26:57;17.50;1.00
23267;DHT22;11802;53.160;8.214;2023-05-07T13:29:22;17.70;99.90
23267;DHT22;11802;53.160;8.214;2023-05-07T13:31:56;17.50;99.90
23267;DHT22;11802;53.160;8.214;2023-05-07T13:34:21;17.70;99.90
23267;DHT22;11802;53.160;8.214;2023-05-07T13:36:47;17.60;99.90
23267;DHT22;11802;53.160;8.214;2023-05-07T13:39:12;17.40;1.00
23267;DHT22;11802;53.160;8.214;2023-05-07T13:41:38;17.40;1.00
23267;DHT22;11802;53.160;8.214;2023-05-07T13:44:04;17.20;1.00
23267;DHT22;11802;53.160;8.214;2023-05-07T13:46:29;17.00;99.90
23267;DHT22;11802;53.160;8.214;2023-05-07T13:48:55;16.80;54.00
23267;DHT22;11802;53.160;8.214;2023-05-07T13:51:21;16.80;99.90
23267;DHT22;11802;53.160;8.214;2023-05-07T13:53:47;17.10;1.00
23267;DHT22;11802;53.160;8.214;2023-05-07T13:56:13;17.30;1.00
23267;DHT22;11802;53.160;8.214;2023-05-07T13:58:39;17.30;1.00
23267;DHT22;11802;53.160;8.214;2023-05-07T14:01:05;17.30;1.00
23267;DHT22;11802;53.160;8.214;2023-05-07T14:03:30;17.40;1.00
23267;DHT22;11802;53.160;8.214;2023-05-07T14:05:58;17.30;1.00
23267;DHT22;11802;53.160;8.214;2023-05-07T14:08:25;17.40;1.00
23267;DHT22;11802;53.160;8.214;2023-05-07T14:10:51;17.60;1.00
23267;DHT22;11802;53.160;8.214;2023-05-07T14:13:17;17.80;99.90
23267;DHT22;11802;53.160;8.214;2023-05-07T14:15:42;18.10;1.00
23267;DHT22;11802;53.160;8.214;2023-05-07T14:18:12;18.30;1.00
23267;DHT22;11802;53.160;8.214;2023-05-07T14:20:37;18.20;1.00
23267;DHT22;11802;53.160;8.214;2023-05-07T14:23:03;17.80;1.00
23267;DHT22;11802;53.160;8.214;2023-05-07T14:25:28;17.80;1.00
23267;DHT22;11802;53.160;8.214;2023-05-07T14:27:54;17.80;1.00
23267;DHT22;11802;53.160;8.214;2023-05-07T14:30:19;17.90;99.90
23267;DHT22;11802;53.160;8.214;2023-05-07T14:32:45;17.80;1.00
23267;DHT22;11802;53.160;8.214;2023-05-07T14:35:11;17.70;1.00
23267;DHT22;11802;53.160;8.214;2023-05-07T14:37:36;17.60;1.00
23267;DHT22;11802;53.160;8.214;2023-05-07T14:40:02;17.50;1.00
23267;DHT22;11802;53.160;8.214;2023-05-07T14:42:27;17.60;1.00
23267;DHT22;11802;53.160;8.214;2023-05-07T14:44:53;17.70;1.00
23267;DHT22;11802;53.160;8.214;2023-05-07T14:47:18;17.80;1.00
23267;DHT22;11802;53.160;8.214;2023-05-07T14:49:44;17.60;1.00
23267;DHT22;11802;53.160;8.214;2023-05-07T14:52:09;17.40;1.00
23267;DHT22;11802;53.160;8.214;2023-05-07T14:54:36;17.30;1.00
23267;DHT22;11802;53.160;8.214;2023-05-07T14:57:02;17.30;1.00
23267;DHT22;11802;53.160;8.214;2023-05-07T14:59:27;17.30;1.00
23267;DHT22;11802;53.160;8.214;2023-05-07T15:01:54;17.20;99.90
23267;DHT22;11802;53.160;8.214;2023-05-07T15:04:19;17.20;1.00
23267;DHT22;11802;53.160;8.214;2023-05-07T15:06:45;17.30;92.10
23267;DHT22;11802;53.160;8.214;2023-05-07T15:09:11;17.50;77.70
23267;DHT22;11802;53.160;8.214;2023-05-07T15:11:37;17.70;1.00
23267;DHT22;11802;53.160;8.214;2023-05-07T15:14:02;17.90;1.00
23267;DHT22;11802;53.160;8.214;2023-05-07T15:16:28;18.10;99.90
23267;DHT22;11802;53.160;8.214;2023-05-07T15:18:53;18.20;1.00
23267;DHT22;11802;53.160;8.214;2023-05-07T15:21:19;18.20;1.00
23267;DHT22;11802;53.160;8.214;2023-05-07T15:23:45;18.30;1.00
23267;DHT22;11802;53.160;8.214;2023-05-07T15:26:10;18.20;1.00
23267;DHT22;11802;53.160;8.214;2023-05-07T15:28:36;18.20;1.00
23267;DHT22;11802;53.160;8.214;2023-05-07T15:31:02;17.80;1.00
23267;DHT22;11802;53.160;8.214;2023-05-07T15:33:27;17.50;99.90
23267;DHT22;11802;53.160;8.214;2023-05-07T15:35:53;17.50;99.90
23267;DHT22;11802;53.160;8.214;2023-05-07T15:38:18;17.50;99.90
23267;DHT22;11802;53.160;8.214;2023-05-07T15:40:44;17.50;1.00
23267;DHT22;11802;53.160;8.214;2023-05-07T15:43:11;17.50;1.00
23267;DHT22;11802;53.160;8.214;2023-05-07T15:45:41;17.30;1.00
23267;DHT22;11802;53.160;8.214;2023-05-07T15:48:07;17.30;1.00
23267;DHT22;11802;53.160;8.214;2023-05-07T15:50:33;17.20;99.90
23267;DHT22;11802;53.160;8.214;2023-05-07T15:52:58;17.00;1.00
23267;DHT22;11802;53.160;8.214;2023-05-07T15:55:24;17.10;1.00